Terminal Aerodrome Forecast
Issued by NWS Boston, MA

Home | Current Version | Previous Version | Text Only | Print | Product List | Glossary On
Versions: 1 2 3 4 5 6 7 8 9 10 11 12 13 14 15 16 17 18 19 20 21 22 23 24 25 26
000
FTUS41 KBOX 181735
TAFBDL
TAF
KBDL 181735Z 1818/1924 18006KT P6SM OVC150
     FM182100 17004KT P6SM -RA OVC070
     FM190100 18006KT 6SM -RA BR OVC020
     FM190600 19010G25KT 5SM -RA BR OVC015 WS020/20035KT
     FM191000 19012G25KT 3SM -RA BR OVC008 WS020/20040KT
     FM191500 25011G25KT P6SM -RA BKN025
     FM191700 28014G26KT P6SM FEW060
     FM192200 28009KT P6SM FEW150=

USA.gov is the U.S. government's official web portal to all federal, state and local government web resources and services.